CheckWX is a tool to help pilots better visualize weather data.  It is not intended as a substitute for an official pre-flight weather briefing.

12:25:31 UTC

LLOV TAF
Ovda International Airport
Eilat, Israel
TAF LLOV 221102Z 2212/2312 01010KT CAVOK BECMG 2218/2222 24005KT BECMG 2306/2308 01010KT PROB40 2310/2312 9999 -RA SCT050TCU TX22/2213Z TN09/2304Z

Mar-22@
12:00 UTC

Mar-22 @ 12:00 UTC

Mar-22@
18:00 UTC

Mar-22 @ 18:00 UTC

TAF LLOV 221102Z 2212/2312 01010KT CAVOK
Wind
  • 010° at 10 KTS
Conditions
No significant weather
Cloud Levels
  • No significant clouds

Mar-22@
18:00 UTC

Mar-22 @ 18:00 UTC

Mar-23@
06:00 UTC

Mar-23 @ 06:00 UTC

BECMG 2218/2222 24005KT

Becoming

Becoming Conditions expected by Fri, Mar 22, 2019 @ 22:00 UTC

Wind
  • 240° at 5 KTS
Conditions
No significant weather
Cloud Levels
  • No significant clouds

Mar-23@
06:00 UTC

Mar-23 @ 06:00 UTC

Mar-23@
12:00 UTC

Mar-23 @ 12:00 UTC

BECMG 2306/2308 01010KT

Becoming

Becoming Conditions expected by Sat, Mar 23, 2019 @ 08:00 UTC

Wind
  • 010° at 10 KTS
Conditions
No significant weather
Cloud Levels
  • No significant clouds

Mar-23@
10:00 UTC

Mar-23 @ 10:00 UTC

Mar-23@
12:00 UTC

Mar-23 @ 12:00 UTC

PROB40 2310/2312 9999 -RA SCT050TCU TX22/2213Z TN09/2304Z

Probable - 40% Likelihood

Probable - 40% Likelihood during this time.

Conditions
Light Rain
Cloud Levels
  • Scattered at 5,000' AGL